createdAt,value
2018-09-15T00:00:46.187Z,99.90
2018-09-15T00:03:14.310Z,99.90
2018-09-15T00:05:42.435Z,99.90
2018-09-15T00:08:10.531Z,99.90
2018-09-15T00:10:38.647Z,99.90
2018-09-15T00:13:06.747Z,99.90
2018-09-15T00:15:34.852Z,99.90
2018-09-15T00:18:05.052Z,99.90
2018-09-15T00:20:33.173Z,99.90
2018-09-15T00:23:01.325Z,99.90
2018-09-15T00:25:29.371Z,99.90
2018-09-15T00:27:57.488Z,99.90
2018-09-15T00:30:25.587Z,99.90
2018-09-15T00:32:53.696Z,99.90
2018-09-15T00:35:21.869Z,99.90
2018-09-15T00:37:50.089Z,99.90
2018-09-15T00:40:18.215Z,99.90
2018-09-15T00:42:46.487Z,99.90
2018-09-15T00:45:14.775Z,99.90
2018-09-15T00:47:42.912Z,99.90
2018-09-15T00:50:11.012Z,99.90
2018-09-15T00:52:39.238Z,99.90
2018-09-15T00:55:07.328Z,99.90
2018-09-15T00:57:35.446Z,99.90
2018-09-15T01:00:03.976Z,99.90
2018-09-15T01:02:32.088Z,99.90
2018-09-15T01:05:00.215Z,99.90
2018-09-15T01:07:28.340Z,99.90
2018-09-15T01:09:56.447Z,99.90
2018-09-15T01:12:24.569Z,99.90
2018-09-15T01:14:52.672Z,99.90
2018-09-15T01:17:20.808Z,99.90
2018-09-15T01:19:48.912Z,99.90
2018-09-15T01:22:17.295Z,99.90
2018-09-15T01:24:45.772Z,99.90
2018-09-15T01:27:13.891Z,99.90
2018-09-15T01:29:42.021Z,99.90
2018-09-15T01:32:10.140Z,99.90
2018-09-15T01:34:38.254Z,99.90
2018-09-15T01:37:06.385Z,99.90
2018-09-15T01:39:34.487Z,99.90
2018-09-15T01:42:02.586Z,99.90
2018-09-15T01:44:30.682Z,99.90
2018-09-15T01:46:58.949Z,99.90
2018-09-15T01:49:27.062Z,99.90
2018-09-15T01:51:55.193Z,99.90
2018-09-15T01:54:23.285Z,99.90
2018-09-15T01:56:51.382Z,99.90
2018-09-15T01:59:19.478Z,99.90
2018-09-15T02:01:47.593Z,99.90
2018-09-15T02:04:15.844Z,99.90
2018-09-15T02:06:43.952Z,99.90
2018-09-15T02:09:13.835Z,99.90
2018-09-15T02:11:42.022Z,99.90
2018-09-15T02:14:10.310Z,99.90
2018-09-15T02:16:38.391Z,99.90
2018-09-15T02:19:06.494Z,99.90
2018-09-15T02:21:34.582Z,99.90
2018-09-15T02:24:02.695Z,99.90
2018-09-15T02:26:30.790Z,99.90
2018-09-15T02:28:58.969Z,99.90
2018-09-15T02:31:27.024Z,99.90
2018-09-15T02:33:55.299Z,99.90
2018-09-15T02:36:23.391Z,99.90
2018-09-15T02:38:51.487Z,99.90
2018-09-15T02:41:19.587Z,99.90
2018-09-15T02:43:47.689Z,99.90
2018-09-15T02:46:16.275Z,99.90
2018-09-15T02:48:44.557Z,99.90
2018-09-15T02:51:12.679Z,99.90
2018-09-15T02:53:41.012Z,99.90
2018-09-15T02:56:09.102Z,99.90
2018-09-15T02:58:37.226Z,99.90
2018-09-15T03:01:05.323Z,99.90
2018-09-15T03:03:33.411Z,99.90
2018-09-15T03:06:01.514Z,99.90
2018-09-15T03:08:29.649Z,99.90
2018-09-15T03:10:57.790Z,99.90
2018-09-15T03:13:25.987Z,99.90
2018-09-15T03:15:54.255Z,99.90
2018-09-15T03:18:22.443Z,99.90
2018-09-15T03:20:50.568Z,99.90
2018-09-15T03:23:18.681Z,99.90
2018-09-15T03:25:46.798Z,99.90
2018-09-15T03:28:15.013Z,99.90
2018-09-15T03:30:43.114Z,99.90
2018-09-15T03:33:11.215Z,99.90
2018-09-15T03:35:39.347Z,99.90
2018-09-15T03:38:07.459Z,99.90
2018-09-15T03:40:35.586Z,99.90
2018-09-15T03:43:03.695Z,99.90
2018-09-15T03:45:31.831Z,99.90
2018-09-15T03:47:59.913Z,99.90
2018-09-15T03:50:28.018Z,99.90
2018-09-15T03:52:56.156Z,99.90
2018-09-15T03:55:24.295Z,99.90
2018-09-15T03:57:52.394Z,99.90
2018-09-15T04:00:20.516Z,99.90
2018-09-15T04:02:48.631Z,99.90
2018-09-15T04:05:16.796Z,99.90
2018-09-15T04:07:44.900Z,99.90
2018-09-15T04:10:13.062Z,99.90
2018-09-15T04:12:41.180Z,99.90
2018-09-15T04:15:09.300Z,99.90
2018-09-15T04:17:37.400Z,99.90
2018-09-15T04:20:05.510Z,99.90
2018-09-15T04:22:33.931Z,99.90
2018-09-15T04:25:02.130Z,99.90
2018-09-15T04:27:30.236Z,99.90
2018-09-15T04:29:58.359Z,99.90
2018-09-15T04:32:26.462Z,99.90
2018-09-15T04:34:54.567Z,99.90
2018-09-15T04:37:22.688Z,99.90
2018-09-15T04:39:50.819Z,99.90
2018-09-15T04:42:18.923Z,99.90
2018-09-15T04:44:47.010Z,99.90
2018-09-15T04:47:15.121Z,99.90
2018-09-15T04:49:43.230Z,99.90
2018-09-15T04:52:11.336Z,99.90
2018-09-15T04:54:39.562Z,99.90
2018-09-15T04:57:07.675Z,99.90
2018-09-15T04:59:35.770Z,99.90
2018-09-15T05:02:03.885Z,99.90
2018-09-15T05:04:32.012Z,99.90
2018-09-15T05:07:00.171Z,99.90
2018-09-15T05:09:28.283Z,99.90
2018-09-15T05:11:56.422Z,99.90
2018-09-15T05:14:24.506Z,99.90
2018-09-15T05:16:52.627Z,99.90
2018-09-15T05:19:20.720Z,99.90
2018-09-15T05:21:48.831Z,99.90
2018-09-15T05:24:16.954Z,99.90
2018-09-15T05:26:45.079Z,99.90
2018-09-15T05:29:13.189Z,99.90
2018-09-15T05:31:41.380Z,99.90
2018-09-15T05:34:09.406Z,99.90
2018-09-15T05:36:37.588Z,99.90
2018-09-15T05:39:08.591Z,99.90
2018-09-15T05:41:36.818Z,99.90
2018-09-15T05:44:04.909Z,99.90
2018-09-15T05:46:33.035Z,99.90
2018-09-15T05:49:01.248Z,99.90
2018-09-15T05:51:29.356Z,99.90
2018-09-15T05:53:57.458Z,99.90
2018-09-15T05:56:25.553Z,99.90
2018-09-15T05:58:53.651Z,99.90
2018-09-15T06:01:21.759Z,99.90
2018-09-15T06:03:49.888Z,99.90
2018-09-15T06:06:18.655Z,99.90
2018-09-15T06:08:46.760Z,99.90
2018-09-15T06:11:14.890Z,99.90
2018-09-15T06:13:43.094Z,99.90
2018-09-15T06:16:11.185Z,99.90
2018-09-15T06:18:39.295Z,99.90
2018-09-15T06:21:07.602Z,99.90
2018-09-15T06:23:35.709Z,99.90
2018-09-15T06:26:03.840Z,99.90
2018-09-15T06:28:32.136Z,99.90
2018-09-15T06:31:00.303Z,99.90
2018-09-15T06:33:28.400Z,99.90
2018-09-15T06:35:56.538Z,99.90
2018-09-15T06:38:24.675Z,99.90
2018-09-15T06:40:52.786Z,99.90
2018-09-15T06:43:20.879Z,99.90
2018-09-15T06:45:49.085Z,99.90
2018-09-15T06:48:17.112Z,99.90
2018-09-15T06:50:45.218Z,99.90
2018-09-15T06:53:13.416Z,99.90
2018-09-15T06:55:41.519Z,99.90
2018-09-15T06:58:10.019Z,99.90
2018-09-15T07:00:38.151Z,99.90
2018-09-15T07:03:06.255Z,99.90
2018-09-15T07:05:34.367Z,99.90
2018-09-15T07:08:03.304Z,99.90
2018-09-15T07:10:31.634Z,99.90
2018-09-15T07:12:59.795Z,99.90
2018-09-15T07:15:27.957Z,99.90
2018-09-15T07:17:56.070Z,99.90
2018-09-15T07:20:24.188Z,99.90
2018-09-15T07:22:52.295Z,99.90
2018-09-15T07:25:20.372Z,99.90
2018-09-15T07:27:48.495Z,99.90
2018-09-15T07:30:16.975Z,99.90
2018-09-15T07:32:46.890Z,99.90
2018-09-15T07:35:15.087Z,99.90
2018-09-15T07:37:43.269Z,99.90
2018-09-15T07:40:11.314Z,99.90
2018-09-15T07:42:39.435Z,99.90
2018-09-15T07:45:07.708Z,99.90
2018-09-15T07:47:35.811Z,99.90
2018-09-15T07:50:03.932Z,99.90
2018-09-15T07:52:32.027Z,99.90
2018-09-15T07:55:00.119Z,99.90
2018-09-15T07:57:28.244Z,99.90
2018-09-15T07:59:56.387Z,99.90
2018-09-15T08:02:24.474Z,99.90
2018-09-15T08:04:52.597Z,99.90
2018-09-15T08:07:20.701Z,99.90
2018-09-15T08:09:48.843Z,99.90
2018-09-15T08:12:17.943Z,99.90
2018-09-15T08:14:46.052Z,99.90
2018-09-15T08:17:14.240Z,99.90
2018-09-15T08:19:42.572Z,99.90
2018-09-15T08:22:10.691Z,99.90
2018-09-15T08:24:38.791Z,99.90
2018-09-15T08:27:07.088Z,99.90
2018-09-15T08:29:35.236Z,99.90
2018-09-15T08:32:03.412Z,99.90
2018-09-15T08:34:31.491Z,99.90
2018-09-15T08:36:59.584Z,99.90
2018-09-15T08:39:27.706Z,99.90
2018-09-15T08:41:55.784Z,99.90
2018-09-15T08:44:23.879Z,99.90
2018-09-15T08:46:52.003Z,99.90
2018-09-15T08:49:20.114Z,99.90
2018-09-15T08:51:48.185Z,99.90
2018-09-15T08:54:16.334Z,99.90
2018-09-15T08:56:44.440Z,99.90
2018-09-15T08:59:12.561Z,99.90
2018-09-15T09:01:40.668Z,99.90
2018-09-15T09:04:08.794Z,99.90
2018-09-15T09:06:36.908Z,99.90
2018-09-15T09:09:07.878Z,99.90
2018-09-15T09:11:35.995Z,99.90
2018-09-15T09:14:04.080Z,99.90
2018-09-15T09:16:32.183Z,99.90
2018-09-15T09:19:00.283Z,99.90
2018-09-15T09:21:28.383Z,99.90
2018-09-15T09:23:56.488Z,99.90
2018-09-15T09:26:24.832Z,99.90
2018-09-15T09:28:52.802Z,99.90
2018-09-15T09:31:20.903Z,99.70
2018-09-15T09:33:48.997Z,99.40
2018-09-15T09:36:17.087Z,99.00
2018-09-15T09:38:45.167Z,98.70
2018-09-15T09:41:13.259Z,97.50
2018-09-15T09:43:41.339Z,97.10
2018-09-15T09:46:09.440Z,97.50
2018-09-15T09:48:37.528Z,97.30
2018-09-15T09:51:05.752Z,97.30
2018-09-15T09:53:33.905Z,96.70
2018-09-15T09:56:02.003Z,96.10
2018-09-15T09:58:30.098Z,95.60
2018-09-15T10:00:58.959Z,95.20
2018-09-15T10:03:27.553Z,94.40
2018-09-15T10:05:55.661Z,94.20
2018-09-15T10:08:23.775Z,93.70
2018-09-15T10:10:51.866Z,93.40
2018-09-15T10:13:19.935Z,93.50
2018-09-15T10:15:48.113Z,93.20
2018-09-15T10:18:16.150Z,93.10
2018-09-15T10:20:44.243Z,93.20
2018-09-15T10:23:12.331Z,93.00
2018-09-15T10:25:40.410Z,92.50
2018-09-15T10:28:08.532Z,92.60
2018-09-15T10:30:36.624Z,92.80
2018-09-15T10:33:04.747Z,93.00
2018-09-15T10:35:32.836Z,92.50
2018-09-15T10:38:00.966Z,92.50
2018-09-15T10:40:29.099Z,92.70
2018-09-15T10:42:57.154Z,92.90
2018-09-15T10:45:25.245Z,92.40
2018-09-15T10:47:53.336Z,92.40
2018-09-15T10:50:21.419Z,92.10
2018-09-15T10:52:49.590Z,92.10
2018-09-15T10:55:17.675Z,91.80
2018-09-15T10:57:45.756Z,91.90
2018-09-15T11:00:13.886Z,92.40
2018-09-15T11:02:41.979Z,92.60
2018-09-15T11:05:10.069Z,92.20
2018-09-15T11:07:38.143Z,92.20
2018-09-15T11:10:06.232Z,91.60
2018-09-15T11:12:34.316Z,91.60
2018-09-15T11:15:02.402Z,91.80
2018-09-15T11:17:30.479Z,91.40
2018-09-15T11:19:58.579Z,91.00
2018-09-15T11:22:26.670Z,90.10
2018-09-15T11:24:54.740Z,87.90
2018-09-15T11:27:22.836Z,89.90
2018-09-15T11:29:50.911Z,90.10
2018-09-15T11:32:18.996Z,90.30
2018-09-15T11:34:47.107Z,90.70
2018-09-15T11:37:15.202Z,90.40
2018-09-15T11:39:43.383Z,90.80
2018-09-15T11:42:11.475Z,90.70
2018-09-15T11:44:39.560Z,90.20
2018-09-15T11:47:07.647Z,90.20
2018-09-15T11:49:35.726Z,89.60
2018-09-15T11:52:03.823Z,88.20
2018-09-15T11:54:31.930Z,87.80
2018-09-15T11:57:00.023Z,87.00
2018-09-15T11:59:28.127Z,87.60
2018-09-15T12:01:56.274Z,88.90
2018-09-15T12:04:24.368Z,88.90
2018-09-15T12:06:52.458Z,89.40
2018-09-15T12:09:20.535Z,88.90
2018-09-15T12:11:48.660Z,88.90
2018-09-15T12:14:16.810Z,90.00
2018-09-15T12:16:44.857Z,90.20
2018-09-15T12:19:12.973Z,90.70
2018-09-15T12:21:41.127Z,90.80
2018-09-15T12:24:09.164Z,90.40
2018-09-15T12:26:37.271Z,89.40
2018-09-15T12:29:05.384Z,90.30
2018-09-15T12:31:33.499Z,87.70
2018-09-15T12:34:01.606Z,89.10
2018-09-15T12:36:29.723Z,88.20
2018-09-15T12:38:57.818Z,86.60
2018-09-15T12:41:25.934Z,85.90
2018-09-15T12:43:54.041Z,86.90
2018-09-15T12:46:22.134Z,87.00
2018-09-15T12:48:50.236Z,85.80
2018-09-15T12:51:18.319Z,86.40
2018-09-15T12:53:46.418Z,86.30
2018-09-15T12:56:14.638Z,87.60
2018-09-15T12:58:42.764Z,88.10
2018-09-15T13:01:10.858Z,88.10
2018-09-15T13:03:38.970Z,88.30
2018-09-15T13:06:07.457Z,88.70
2018-09-15T13:08:35.564Z,88.70
2018-09-15T13:11:03.672Z,88.30
2018-09-15T13:13:31.822Z,88.70
2018-09-15T13:15:59.928Z,88.60
2018-09-15T13:18:28.047Z,88.50
2018-09-15T13:20:56.143Z,89.60
2018-09-15T13:23:24.254Z,89.50
2018-09-15T13:25:52.350Z,88.60
2018-09-15T13:28:20.455Z,88.40
2018-09-15T13:30:48.543Z,87.90
2018-09-15T13:33:16.646Z,87.80
2018-09-15T13:35:44.736Z,87.50
2018-09-15T13:38:12.837Z,87.90
2018-09-15T13:40:40.940Z,87.80
2018-09-15T13:43:09.079Z,88.20
2018-09-15T13:45:37.210Z,88.60
2018-09-15T13:48:05.323Z,88.90
2018-09-15T13:50:33.401Z,89.10
2018-09-15T13:53:01.507Z,89.20
2018-09-15T13:55:29.599Z,89.70
2018-09-15T13:57:57.716Z,89.50
2018-09-15T14:00:25.819Z,89.40
2018-09-15T14:02:53.926Z,89.60
2018-09-15T14:05:22.027Z,89.50
2018-09-15T14:07:50.139Z,89.50
2018-09-15T14:10:19.008Z,89.90
2018-09-15T14:12:46.320Z,90.00
2018-09-15T14:15:14.428Z,90.10
2018-09-15T14:17:42.503Z,90.20
2018-09-15T14:20:10.684Z,90.40
2018-09-15T14:22:38.756Z,91.70
2018-09-15T14:25:06.833Z,92.40
2018-09-15T14:27:34.922Z,92.50
2018-09-15T14:30:03.021Z,92.40
2018-09-15T14:32:31.103Z,91.60
2018-09-15T14:34:59.234Z,91.90
2018-09-15T14:37:27.266Z,91.90
2018-09-15T14:39:55.349Z,92.00
2018-09-15T14:42:23.431Z,92.00
2018-09-15T14:44:51.544Z,92.20
2018-09-15T14:47:19.844Z,92.10
2018-09-15T14:49:47.937Z,92.00
2018-09-15T14:52:16.019Z,91.80
2018-09-15T14:54:44.108Z,92.00
2018-09-15T14:57:12.197Z,92.00
2018-09-15T14:59:40.301Z,92.00
2018-09-15T15:02:08.794Z,91.80
2018-09-15T15:04:36.871Z,91.90
2018-09-15T15:07:05.387Z,91.90
2018-09-15T15:09:33.471Z,91.80
2018-09-15T15:12:01.561Z,91.50
2018-09-15T15:14:29.652Z,91.70
2018-09-15T15:16:57.759Z,91.30
2018-09-15T15:19:25.840Z,91.50
2018-09-15T15:21:53.944Z,91.80
2018-09-15T15:24:22.023Z,91.80
2018-09-15T15:26:50.107Z,91.90
2018-09-15T15:29:18.244Z,92.00
2018-09-15T15:31:46.435Z,92.00
2018-09-15T15:34:14.451Z,91.90
2018-09-15T15:36:42.527Z,91.70
2018-09-15T15:39:10.626Z,91.80
2018-09-15T15:41:38.697Z,91.90
2018-09-15T15:44:06.811Z,91.80
2018-09-15T15:46:34.891Z,91.80
2018-09-15T15:49:03.528Z,91.60
2018-09-15T15:51:31.655Z,91.40
2018-09-15T15:53:59.689Z,91.60
2018-09-15T15:56:27.774Z,91.60
2018-09-15T15:58:56.002Z,91.70
2018-09-15T16:01:23.953Z,91.80
2018-09-15T16:03:52.442Z,91.70
2018-09-15T16:06:20.556Z,91.60
2018-09-15T16:08:49.006Z,91.70
2018-09-15T16:11:17.132Z,91.80
2018-09-15T16:13:45.174Z,92.00
2018-09-15T16:16:13.293Z,92.10
2018-09-15T16:18:41.366Z,92.20
2018-09-15T16:21:09.457Z,92.30
2018-09-15T16:23:37.527Z,92.30
2018-09-15T16:26:05.615Z,92.20
2018-09-15T16:28:33.702Z,92.30
2018-09-15T16:31:01.781Z,92.40
2018-09-15T16:33:29.857Z,92.80
2018-09-15T16:35:57.927Z,92.70
2018-09-15T16:38:26.013Z,92.90
2018-09-15T16:40:54.124Z,92.90
2018-09-15T16:43:22.188Z,92.80
2018-09-15T16:45:50.391Z,92.80
2018-09-15T16:48:18.453Z,93.10
2018-09-15T16:50:46.530Z,93.20
2018-09-15T16:53:14.684Z,93.30
2018-09-15T16:55:42.755Z,93.80
2018-09-15T16:58:10.879Z,93.60
2018-09-15T17:00:39.014Z,93.80
2018-09-15T17:03:07.081Z,93.90
2018-09-15T17:05:35.287Z,94.10
2018-09-15T17:08:03.382Z,94.10
2018-09-15T17:10:31.529Z,94.30
2018-09-15T17:12:59.662Z,94.40
2018-09-15T17:15:27.786Z,94.40
2018-09-15T17:17:55.922Z,94.50
2018-09-15T17:20:24.028Z,94.50
2018-09-15T17:22:52.176Z,94.80
2018-09-15T17:25:20.315Z,94.40
2018-09-15T17:27:48.501Z,94.40
2018-09-15T17:30:16.585Z,94.50
2018-09-15T17:32:44.718Z,94.50
2018-09-15T17:35:12.801Z,94.40
2018-09-15T17:37:40.968Z,94.30
2018-09-15T17:40:09.048Z,94.40
2018-09-15T17:42:37.154Z,94.40
2018-09-15T17:45:05.251Z,94.50
2018-09-15T17:47:33.347Z,94.40
2018-09-15T17:50:01.427Z,94.40
2018-09-15T17:52:29.510Z,94.30
2018-09-15T17:54:57.670Z,94.40
2018-09-15T17:57:25.822Z,94.30
2018-09-15T17:59:53.896Z,94.30
2018-09-15T18:02:22.052Z,94.40
2018-09-15T18:04:50.152Z,94.50
2018-09-15T18:07:18.232Z,94.50
2018-09-15T18:09:46.716Z,94.60
2018-09-15T18:12:14.752Z,94.70
2018-09-15T18:14:42.958Z,94.80
2018-09-15T18:17:11.080Z,94.90
2018-09-15T18:19:39.184Z,95.00
2018-09-15T18:22:07.337Z,95.20
2018-09-15T18:24:35.396Z,95.30
2018-09-15T18:27:03.499Z,95.40
2018-09-15T18:29:31.635Z,95.50
2018-09-15T18:31:59.747Z,95.60
2018-09-15T18:34:27.837Z,95.80
2018-09-15T18:36:56.037Z,95.90
2018-09-15T18:39:24.035Z,96.10
2018-09-15T18:41:52.135Z,96.20
2018-09-15T18:44:20.227Z,96.40
2018-09-15T18:46:48.344Z,96.40
2018-09-15T18:49:16.459Z,96.40
2018-09-15T18:51:44.570Z,96.50
2018-09-15T18:54:12.658Z,96.50
2018-09-15T18:56:40.759Z,96.50
2018-09-15T18:59:08.883Z,96.60
2018-09-15T19:01:36.974Z,96.70
2018-09-15T19:04:05.054Z,97.00
2018-09-15T19:06:33.199Z,97.00
2018-09-15T19:09:01.295Z,97.10
2018-09-15T19:11:29.379Z,97.10
2018-09-15T19:13:57.474Z,97.30
2018-09-15T19:16:25.562Z,97.40
2018-09-15T19:18:53.655Z,97.40
2018-09-15T19:21:21.730Z,97.50
2018-09-15T19:23:49.808Z,97.40
2018-09-15T19:26:17.897Z,97.40
2018-09-15T19:28:45.996Z,97.50
2018-09-15T19:31:14.157Z,97.60
2018-09-15T19:33:42.251Z,97.90
2018-09-15T19:36:10.332Z,97.80
2018-09-15T19:38:38.416Z,97.90
2018-09-15T19:41:06.498Z,98.20
2018-09-15T19:43:34.576Z,98.30
2018-09-15T19:46:02.651Z,98.20
2018-09-15T19:48:30.763Z,98.50
2018-09-15T19:50:58.890Z,98.80
2018-09-15T19:53:26.987Z,98.80
2018-09-15T19:55:55.054Z,98.90
2018-09-15T19:58:23.143Z,99.10
2018-09-15T20:00:51.255Z,99.90
2018-09-15T20:03:19.351Z,99.90
2018-09-15T20:05:47.435Z,99.90
2018-09-15T20:08:15.540Z,99.90
2018-09-15T20:10:43.630Z,99.90
2018-09-15T20:13:11.749Z,99.90
2018-09-15T20:15:38.924Z,99.90
2018-09-15T20:18:06.099Z,99.90
2018-09-15T20:20:33.280Z,99.90
2018-09-15T20:23:01.380Z,99.90
2018-09-15T20:25:29.476Z,99.90
2018-09-15T20:27:57.567Z,99.90
2018-09-15T20:30:25.671Z,99.90
2018-09-15T20:32:53.802Z,99.90
2018-09-15T20:35:21.859Z,99.90
2018-09-15T20:37:49.985Z,99.90
2018-09-15T20:40:18.093Z,99.90
2018-09-15T20:42:46.214Z,99.90
2018-09-15T20:45:14.379Z,99.90
2018-09-15T20:47:42.481Z,99.90
2018-09-15T20:50:10.579Z,99.90
2018-09-15T20:52:38.674Z,99.90
2018-09-15T20:55:07.208Z,99.90
2018-09-15T20:57:35.326Z,99.90
2018-09-15T21:00:03.428Z,99.90
2018-09-15T21:02:31.523Z,99.90
2018-09-15T21:04:59.615Z,99.90
2018-09-15T21:07:27.703Z,99.90
2018-09-15T21:09:55.808Z,99.90
2018-09-15T21:12:23.883Z,99.90
2018-09-15T21:14:51.969Z,99.90
2018-09-15T21:17:20.073Z,99.90
2018-09-15T21:19:48.163Z,99.90
2018-09-15T21:22:16.274Z,99.90
2018-09-15T21:24:44.360Z,99.90
2018-09-15T21:27:12.445Z,99.90
2018-09-15T21:29:40.520Z,99.90
2018-09-15T21:32:08.599Z,99.90
2018-09-15T21:34:36.705Z,99.90
2018-09-15T21:37:04.782Z,99.90
2018-09-15T21:39:32.983Z,99.90
2018-09-15T21:42:01.075Z,99.90
2018-09-15T21:44:29.162Z,99.90
2018-09-15T21:46:57.246Z,99.90
2018-09-15T21:49:25.338Z,99.90
2018-09-15T21:51:53.443Z,99.90
2018-09-15T21:54:21.543Z,99.90
2018-09-15T21:56:49.646Z,99.90
2018-09-15T21:59:17.894Z,99.90
2018-09-15T22:01:45.966Z,99.90
2018-09-15T22:04:19.282Z,99.90
2018-09-15T22:06:47.817Z,99.90
2018-09-15T22:09:15.920Z,99.90
2018-09-15T22:11:44.514Z,99.90
2018-09-15T22:14:12.726Z,99.90
2018-09-15T22:16:41.384Z,99.90
2018-09-15T22:19:09.526Z,99.90
2018-09-15T22:21:37.619Z,99.90
2018-09-15T22:24:06.219Z,99.90
2018-09-15T22:26:34.500Z,99.90
2018-09-15T22:29:02.867Z,99.90
2018-09-15T22:31:30.984Z,99.90
2018-09-15T22:34:00.039Z,99.90
2018-09-15T22:36:28.129Z,99.90
2018-09-15T22:38:56.276Z,99.90
2018-09-15T22:41:24.379Z,99.90
2018-09-15T22:43:52.499Z,99.90
2018-09-15T22:46:21.033Z,99.90
2018-09-15T22:48:49.121Z,99.90
2018-09-15T22:51:17.395Z,99.90
2018-09-15T22:53:45.500Z,99.90
2018-09-15T22:56:13.610Z,99.90
2018-09-15T22:58:41.703Z,99.90
2018-09-15T23:01:09.812Z,99.90
2018-09-15T23:03:38.071Z,99.90
2018-09-15T23:06:06.415Z,99.90
2018-09-15T23:08:34.918Z,99.90
2018-09-15T23:11:03.024Z,99.90
2018-09-15T23:13:31.202Z,99.90
2018-09-15T23:15:59.303Z,99.90
2018-09-15T23:18:27.409Z,99.90
2018-09-15T23:20:55.524Z,99.90
2018-09-15T23:23:23.738Z,99.90
2018-09-15T23:25:51.848Z,99.90
2018-09-15T23:28:19.940Z,99.90
2018-09-15T23:30:48.040Z,99.90
2018-09-15T23:33:16.138Z,99.90
2018-09-15T23:35:44.250Z,99.90
2018-09-15T23:38:12.352Z,99.90
2018-09-15T23:40:40.446Z,99.90
2018-09-15T23:43:08.573Z,99.90
2018-09-15T23:45:36.661Z,99.90
2018-09-15T23:48:04.770Z,99.90
2018-09-15T23:50:32.998Z,99.90
2018-09-15T23:53:01.090Z,99.90
2018-09-15T23:55:29.276Z,99.90
2018-09-15T23:57:57.384Z,99.90
